sensor_id;sensor_type;location;lat;lon;timestamp;pressure;altitude;pressure_sealevel;temperature;humidity
39823;BME280;25499;53.958;10.970;2024-03-22T07:28:30;101030.44;;;8.90;100.00
39823;BME280;25499;53.958;10.970;2024-03-22T07:30:58;101021.78;;;8.88;100.00
39823;BME280;25499;53.958;10.970;2024-03-22T07:33:23;101023.63;;;9.02;100.00
39823;BME280;25499;53.958;10.970;2024-03-22T07:35:50;101016.69;;;9.04;100.00
39823;BME280;25499;53.958;10.970;2024-03-22T07:38:17;101023.66;;;9.09;100.00
39823;BME280;25499;53.958;10.970;2024-03-22T07:40:45;101017.66;;;9.18;100.00
39823;BME280;25499;53.958;10.970;2024-03-22T07:43:10;101024.66;;;9.25;100.00
39823;BME280;25499;53.958;10.970;2024-03-22T07:45:40;101018.59;;;9.29;100.00
39823;BME280;25499;53.958;10.970;2024-03-22T07:48:06;101022.09;;;9.34;100.00
39823;BME280;25499;53.958;10.970;2024-03-22T07:50:33;101016.09;;;9.40;100.00
39823;BME280;25499;53.958;10.970;2024-03-22T07:52:59;101023.06;;;9.47;100.00
39823;BME280;25499;53.958;10.970;2024-03-22T07:55:26;101030.84;;;9.52;100.00
39823;BME280;25499;53.958;10.970;2024-03-22T07:57:52;101028.25;;;9.53;100.00
39823;BME280;25499;53.958;10.970;2024-03-22T08:00:19;101021.31;;;9.46;100.00
39823;BME280;25499;53.958;10.970;2024-03-22T08:02:46;101027.41;;;9.51;100.00
39823;BME280;25499;53.958;10.970;2024-03-22T08:05:13;101025.69;;;9.58;100.00
39823;BME280;25499;53.958;10.970;2024-03-22T08:07:39;101023.97;;;9.62;100.00
39823;BME280;25499;53.958;10.970;2024-03-22T08:10:08;101030.88;;;9.53;100.00
39823;BME280;25499;53.958;10.970;2024-03-22T08:12:34;101017.00;;;9.53;100.00
39823;BME280;25499;53.958;10.970;2024-03-22T08:18:05;101014.41;;;9.51;100.00
39823;BME280;25499;53.958;10.970;2024-03-22T08:20:32;101014.44;;;9.58;100.00
39823;BME280;25499;53.958;10.970;2024-03-22T08:23:28;101015.34;;;9.64;100.00
39823;BME280;25499;53.958;10.970;2024-03-22T08:25:55;101009.25;;;9.65;100.00
39823;BME280;25499;53.958;10.970;2024-03-22T08:28:22;101018.84;;;9.76;100.00
39823;BME280;25499;53.958;10.970;2024-03-22T08:30:49;101011.94;;;9.78;100.00
39823;BME280;25499;53.958;10.970;2024-03-22T08:33:18;101011.09;;;9.85;100.00
39823;BME280;25499;53.958;10.970;2024-03-22T08:35:45;101003.31;;;9.89;100.00
39823;BME280;25499;53.958;10.970;2024-03-22T08:38:10;101007.69;;;10.00;100.00
39823;BME280;25499;53.958;10.970;2024-03-22T08:40:40;100988.59;;;10.01;100.00
39823;BME280;25499;53.958;10.970;2024-03-22T08:43:06;100988.63;;;10.04;100.00
39823;BME280;25499;53.958;10.970;2024-03-22T08:45:33;100989.47;;;10.04;100.00
39823;BME280;25499;53.958;10.970;2024-03-22T08:51:11;100976.47;;;9.98;100.00
39823;BME280;25499;53.958;10.970;2024-03-22T08:53:36;100983.41;;;10.01;100.00
39823;BME280;25499;53.958;10.970;2024-03-22T08:56:04;100971.25;;;9.92;100.00
39823;BME280;25499;53.958;10.970;2024-03-22T08:58:30;100972.13;;;9.89;100.00
39823;BME280;25499;53.958;10.970;2024-03-22T09:00:56;100967.75;;;9.87;100.00
39823;BME280;25499;53.958;10.970;2024-03-22T09:03:22;100970.38;;;9.88;100.00
39823;BME280;25499;53.958;10.970;2024-03-22T09:05:52;100962.59;;;9.93;100.00
39823;BME280;25499;53.958;10.970;2024-03-22T09:08:20;100971.25;;;9.95;100.00
39823;BME280;25499;53.958;10.970;2024-03-22T09:10:47;100964.31;;;9.96;100.00
39823;BME280;25499;53.958;10.970;2024-03-22T09:13:13;100960.88;;;9.97;100.00
39823;BME280;25499;53.958;10.970;2024-03-22T09:15:40;100956.53;;;9.99;100.00
39823;BME280;25499;53.958;10.970;2024-03-22T09:18:06;100958.28;;;9.98;100.00
39823;BME280;25499;53.958;10.970;2024-03-22T09:20:34;100953.91;;;9.96;100.00
39823;BME280;25499;53.958;10.970;2024-03-22T09:22:59;100948.72;;;9.96;100.00
39823;BME280;25499;53.958;10.970;2024-03-22T09:25:28;100950.47;;;9.97;100.00
39823;BME280;25499;53.958;10.970;2024-03-22T09:27:54;100952.19;;;9.93;100.00
39823;BME280;25499;53.958;10.970;2024-03-22T09:30:20;100951.28;;;9.93;100.00
39823;BME280;25499;53.958;10.970;2024-03-22T09:32:47;100955.69;;;10.00;100.00
39823;BME280;25499;53.958;10.970;2024-03-22T09:35:14;100948.72;;;9.96;100.00
39823;BME280;25499;53.958;10.970;2024-03-22T09:37:40;100945.25;;;9.98;100.00
39823;BME280;25499;53.958;10.970;2024-03-22T09:40:07;100940.94;;;10.00;100.00
39823;BME280;25499;53.958;10.970;2024-03-22T09:42:37;100933.97;;;9.99;100.00
39823;BME280;25499;53.958;10.970;2024-03-22T09:45:08;100934.84;;;9.97;100.00
39823;BME280;25499;53.958;10.970;2024-03-22T09:47:34;100934.84;;;9.97;100.00
39823;BME280;25499;53.958;10.970;2024-03-22T09:50:03;100927.94;;;10.02;100.00
39823;BME280;25499;53.958;10.970;2024-03-22T09:53:04;100931.38;;;9.93;100.00
39823;BME280;25499;53.958;10.970;2024-03-22T09:55:32;100920.97;;;9.93;100.00
39823;BME280;25499;53.958;10.970;2024-03-22T09:58:00;100914.03;;;9.90;100.00
39823;BME280;25499;53.958;10.970;2024-03-22T10:00:27;100921.84;;;9.92;100.00
39823;BME280;25499;53.958;10.970;2024-03-22T10:02:53;100917.50;;;9.88;100.00
39823;BME280;25499;53.958;10.970;2024-03-22T10:05:22;100914.00;;;9.86;100.00
39823;BME280;25499;53.958;10.970;2024-03-22T10:07:49;100913.13;;;9.81;100.00
39823;BME280;25499;53.958;10.970;2024-03-22T10:10:18;100917.47;;;9.79;100.00
39823;BME280;25499;53.958;10.970;2024-03-22T10:12:43;100913.13;;;9.76;100.00
39823;BME280;25499;53.958;10.970;2024-03-22T10:15:12;100909.66;;;9.82;100.00
39823;BME280;25499;53.958;10.970;2024-03-22T10:17:39;100910.53;;;9.81;100.00
39823;BME280;25499;53.958;10.970;2024-03-22T10:20:06;100912.25;;;9.77;100.00
39823;BME280;25499;53.958;10.970;2024-03-22T10:22:38;100909.69;;;9.85;100.00
39823;BME280;25499;53.958;10.970;2024-03-22T10:25:05;100915.75;;;9.85;100.00
39823;BME280;25499;53.958;10.970;2024-03-22T10:27:32;100914.91;;;10.00;100.00
39823;BME280;25499;53.958;10.970;2024-03-22T10:29:59;100907.06;;;9.91;100.00
39823;BME280;25499;53.958;10.970;2024-03-22T10:32:27;100905.38;;;9.96;100.00
39823;BME280;25499;53.958;10.970;2024-03-22T10:34:54;100907.09;;;9.99;100.00
39823;BME280;25499;53.958;10.970;2024-03-22T10:37:21;100904.53;;;10.03;100.00
39823;BME280;25499;53.958;10.970;2024-03-22T10:39:50;100899.34;;;10.06;100.00
39823;BME280;25499;53.958;10.970;2024-03-22T10:42:18;100900.16;;;9.99;100.00
39823;BME280;25499;53.958;10.970;2024-03-22T10:44:45;100892.38;;;10.04;100.00
39823;BME280;25499;53.958;10.970;2024-03-22T10:47:12;100900.16;;;10.02;100.00
39823;BME280;25499;53.958;10.970;2024-03-22T10:49:43;100882.84;;;9.97;100.00
39823;BME280;25499;53.958;10.970;2024-03-22T10:52:12;100892.38;;;9.93;100.00
39823;BME280;25499;53.958;10.970;2024-03-22T10:54:40;100886.28;;;9.94;100.00
39823;BME280;25499;53.958;10.970;2024-03-22T10:57:15;100877.66;;;10.00;100.00
39823;BME280;25499;53.958;10.970;2024-03-22T10:59:43;100881.97;;;10.04;100.00
39823;BME280;25499;53.958;10.970;2024-03-22T11:02:11;100881.97;;;10.08;100.00
39823;BME280;25499;53.958;10.970;2024-03-22T11:04:39;100878.50;;;10.26;100.00
39823;BME280;25499;53.958;10.970;2024-03-22T11:07:06;100875.03;;;10.26;100.00
39823;BME280;25499;53.958;10.970;2024-03-22T11:09:33;100875.03;;;10.21;100.00
39823;BME280;25499;53.958;10.970;2024-03-22T11:11:59;100880.25;;;10.29;100.00
39823;BME280;25499;53.958;10.970;2024-03-22T11:14:26;100877.66;;;10.31;100.00
39823;BME280;25499;53.958;10.970;2024-03-22T11:16:52;100868.09;;;10.13;100.00
39823;BME280;25499;53.958;10.970;2024-03-22T11:19:19;100860.31;;;10.02;100.00
39823;BME280;25499;53.958;10.970;2024-03-22T11:21:45;100859.41;;;9.92;100.00
39823;BME280;25499;53.958;10.970;2024-03-22T11:24:13;100873.28;;;9.99;100.00
39823;BME280;25499;53.958;10.970;2024-03-22T11:26:39;100859.41;;;10.03;100.00
39823;BME280;25499;53.958;10.970;2024-03-22T11:29:06;100871.56;;;10.07;100.00
39823;BME280;25499;53.958;10.970;2024-03-22T11:31:33;100864.66;;;10.18;100.00
39823;BME280;25499;53.958;10.970;2024-03-22T11:34:00;100859.41;;;10.20;100.00
39823;BME280;25499;53.958;10.970;2024-03-22T11:36:26;100845.56;;;10.24;100.00
39823;BME280;25499;53.958;10.970;2024-03-22T11:38:53;100850.78;;;10.39;100.00
39823;BME280;25499;53.958;10.970;2024-03-22T11:41:25;100846.47;;;10.34;100.00
39823;BME280;25499;53.958;10.970;2024-03-22T11:43:53;100845.59;;;10.36;100.00
39823;BME280;25499;53.958;10.970;2024-03-22T11:46:19;100844.69;;;10.31;100.00
39823;BME280;25499;53.958;10.970;2024-03-22T11:48:51;100852.50;;;10.31;100.00
39823;BME280;25499;53.958;10.970;2024-03-22T11:51:17;100845.56;;;10.29;100.00
39823;BME280;25499;53.958;10.970;2024-03-22T11:53:48;100854.22;;;10.29;100.00
39823;BME280;25499;53.958;10.970;2024-03-22T11:56:17;100843.81;;;10.24;100.00
39823;BME280;25499;53.958;10.970;2024-03-22T11:58:46;100848.16;;;10.19;100.00
39823;BME280;25499;53.958;10.970;2024-03-22T12:01:13;100855.94;;;10.13;100.00
39823;BME280;25499;53.958;10.970;2024-03-22T12:03:43;100848.16;;;10.08;100.00
39823;BME280;25499;53.958;10.970;2024-03-22T12:06:09;100835.16;;;10.10;100.00
39823;BME280;25499;53.958;10.970;2024-03-22T12:08:37;100833.44;;;10.14;100.00
39823;BME280;25499;53.958;10.970;2024-03-22T12:11:07;100835.13;;;10.15;100.00
39823;BME280;25499;53.958;10.970;2024-03-22T12:13:34;100834.28;;;10.13;100.00
39823;BME280;25499;53.958;10.970;2024-03-22T12:16:01;100831.69;;;10.13;100.00
39823;BME280;25499;53.958;10.970;2024-03-22T12:18:28;100831.69;;;10.05;100.00
39823;BME280;25499;53.958;10.970;2024-03-22T12:20:53;100824.75;;;10.05;100.00
39823;BME280;25499;53.958;10.970;2024-03-22T12:23:20;100831.69;;;10.09;100.00
39823;BME280;25499;53.958;10.970;2024-03-22T12:25:46;100828.22;;;10.14;100.00
39823;BME280;25499;53.958;10.970;2024-03-22T12:28:13;100823.88;;;10.08;100.00
39823;BME280;25499;53.958;10.970;2024-03-22T12:30:40;100831.69;;;10.03;100.00
39823;BME280;25499;53.958;10.970;2024-03-22T12:33:08;100838.59;;;10.04;100.00
39823;BME280;25499;53.958;10.970;2024-03-22T12:35:35;100844.69;;;10.09;100.00
39823;BME280;25499;53.958;10.970;2024-03-22T12:38:03;100829.09;;;10.05;100.00
39823;BME280;25499;53.958;10.970;2024-03-22T12:40:29;100828.22;;;9.95;100.00
39823;BME280;25499;53.958;10.970;2024-03-22T12:42:59;100825.59;;;9.74;100.00
39823;BME280;25499;53.958;10.970;2024-03-22T12:45:25;100829.03;;;9.63;100.00
39823;BME280;25499;53.958;10.970;2024-03-22T12:47:52;100819.53;;;9.71;100.00
39823;BME280;25499;53.958;10.970;2024-03-22T12:50:19;100820.41;;;9.78;100.00
39823;BME280;25499;53.958;10.970;2024-03-22T12:52:46;100823.84;;;9.77;100.00
39823;BME280;25499;53.958;10.970;2024-03-22T12:55:12;100807.41;;;9.77;100.00
39823;BME280;25499;53.958;10.970;2024-03-22T12:57:38;100810.00;;;9.94;100.00
39823;BME280;25499;53.958;10.970;2024-03-22T13:00:06;100811.75;;;9.90;100.00
39823;BME280;25499;53.958;10.970;2024-03-22T13:02:39;100808.25;;;9.94;100.00
39823;BME280;25499;53.958;10.970;2024-03-22T13:05:05;100813.47;;;9.94;100.00
39823;BME280;25499;53.958;10.970;2024-03-22T13:07:33;100812.63;;;9.97;100.00
39823;BME280;25499;53.958;10.970;2024-03-22T13:09:59;100810.00;;;9.87;100.00
39823;BME280;25499;53.958;10.970;2024-03-22T13:12:27;100813.47;;;9.99;100.00
39823;BME280;25499;53.958;10.970;2024-03-22T13:14:54;100809.16;;;10.12;100.00
39823;BME280;25499;53.958;10.970;2024-03-22T13:17:20;100810.88;;;10.20;100.00
39823;BME280;25499;53.958;10.970;2024-03-22T13:19:46;100801.34;;;10.07;100.00
39823;BME280;25499;53.958;10.970;2024-03-22T13:22:13;100805.66;;;10.25;100.00
39823;BME280;25499;53.958;10.970;2024-03-22T13:24:42;100814.34;;;10.19;100.00
39823;BME280;25499;53.958;10.970;2024-03-22T13:27:09;100816.06;;;10.08;100.00
39823;BME280;25499;53.958;10.970;2024-03-22T13:29:35;100818.66;;;10.13;100.00
39823;BME280;25499;53.958;10.970;2024-03-22T13:32:02;100810.03;;;10.18;100.00
39823;BME280;25499;53.958;10.970;2024-03-22T13:34:28;100802.19;;;10.23;100.00
39823;BME280;25499;53.958;10.970;2024-03-22T13:36:54;100803.94;;;10.05;100.00
39823;BME280;25499;53.958;10.970;2024-03-22T13:39:20;100795.28;;;10.06;100.00
39823;BME280;25499;53.958;10.970;2024-03-22T13:42:25;100792.66;;;9.99;100.00
39823;BME280;25499;53.958;10.970;2024-03-22T13:48:12;100788.31;;;10.02;100.00
39823;BME280;25499;53.958;10.970;2024-03-22T13:50:40;100799.59;;;10.03;100.00
39823;BME280;25499;53.958;10.970;2024-03-22T13:53:05;100798.75;;;10.05;100.00
39823;BME280;25499;53.958;10.970;2024-03-22T13:55:32;100795.28;;;10.05;100.00
39823;BME280;25499;53.958;10.970;2024-03-22T13:57:59;100797.88;;;10.03;100.00
39823;BME280;25499;53.958;10.970;2024-03-22T14:00:27;100810.88;;;10.13;100.00
39823;BME280;25499;53.958;10.970;2024-03-22T14:02:52;100801.31;;;9.85;100.00
39823;BME280;25499;53.958;10.970;2024-03-22T14:05:21;100810.88;;;10.00;100.00
39823;BME280;25499;53.958;10.970;2024-03-22T14:07:49;100798.75;;;10.05;100.00
39823;BME280;25499;53.958;10.970;2024-03-22T14:10:16;100808.28;;;10.14;100.00
39823;BME280;25499;53.958;10.970;2024-03-22T14:12:41;100807.41;;;10.26;100.00
39823;BME280;25499;53.958;10.970;2024-03-22T14:15:10;100799.63;;;10.32;100.00
39823;BME280;25499;53.958;10.970;2024-03-22T14:17:35;100803.94;;;10.27;100.00
39823;BME280;25499;53.958;10.970;2024-03-22T14:20:04;100793.53;;;10.24;100.00
39823;BME280;25499;53.958;10.970;2024-03-22T14:22:35;100794.41;;;10.18;100.00
39823;BME280;25499;53.958;10.970;2024-03-22T14:25:02;100795.28;;;10.22;100.00
39823;BME280;25499;53.958;10.970;2024-03-22T14:27:29;100789.22;;;10.18;100.00
39823;BME280;25499;53.958;10.970;2024-03-22T14:30:22;100786.59;;;10.17;100.00
39823;BME280;25499;53.958;10.970;2024-03-22T14:32:50;100778.78;;;10.23;100.00
39823;BME280;25499;53.958;10.970;2024-03-22T14:35:18;100782.25;;;10.08;100.00
39823;BME280;25499;53.958;10.970;2024-03-22T14:37:46;100782.28;;;10.06;100.00
39823;BME280;25499;53.958;10.970;2024-03-22T14:40:12;100773.59;;;9.94;100.00
39823;BME280;25499;53.958;10.970;2024-03-22T14:42:40;100773.59;;;9.94;100.00
39823;BME280;25499;53.958;10.970;2024-03-22T14:45:06;100767.53;;;9.90;100.00
39823;BME280;25499;53.958;10.970;2024-03-22T14:47:36;100744.97;;;9.86;100.00
39823;BME280;25499;53.958;10.970;2024-03-22T14:50:03;100738.94;;;9.95;100.00
39823;BME280;25499;53.958;10.970;2024-03-22T14:52:30;100747.56;;;10.11;100.00
39823;BME280;25499;53.958;10.970;2024-03-22T14:54:56;100740.66;;;10.05;100.00
39823;BME280;25499;53.958;10.970;2024-03-22T14:57:22;100749.31;;;10.07;100.00
39823;BME280;25499;53.958;10.970;2024-03-22T14:59:48;100741.50;;;10.08;100.00
39823;BME280;25499;53.958;10.970;2024-03-22T15:02:17;100733.72;;;10.05;100.00
39823;BME280;25499;53.958;10.970;2024-03-22T15:08:06;100722.44;;;9.91;100.00
39823;BME280;25499;53.958;10.970;2024-03-22T15:10:33;100713.78;;;9.92;100.00
39823;BME280;25499;53.958;10.970;2024-03-22T15:13:00;100711.19;;;9.95;100.00
39823;BME280;25499;53.958;10.970;2024-03-22T15:15:27;100710.31;;;9.92;100.00
39823;BME280;25499;53.958;10.970;2024-03-22T15:17:53;100709.44;;;9.96;100.00
39823;BME280;25499;53.958;10.970;2024-03-22T15:20:19;100699.91;;;9.93;100.00
39823;BME280;25499;53.958;10.970;2024-03-22T15:22:46;100704.25;;;9.88;100.00
39823;BME280;25499;53.958;10.970;2024-03-22T15:25:15;100701.66;;;9.79;100.00
39823;BME280;25499;53.958;10.970;2024-03-22T15:27:40;100707.72;;;9.85;100.00
39823;BME280;25499;53.958;10.970;2024-03-22T15:30:08;100706.84;;;9.79;100.00
39823;BME280;25499;53.958;10.970;2024-03-22T15:32:34;100719.88;;;9.71;100.00
39823;BME280;25499;53.958;10.970;2024-03-22T15:35:01;100711.22;;;9.63;100.00
39823;BME280;25499;53.958;10.970;2024-03-22T15:37:27;100719.00;;;9.63;100.00
39823;BME280;25499;53.958;10.970;2024-03-22T15:39:54;100712.94;;;9.61;100.00
39823;BME280;25499;53.958;10.970;2024-03-22T15:42:21;100705.16;;;9.59;100.00
39823;BME280;25499;53.958;10.970;2024-03-22T15:44:48;100709.47;;;9.60;100.00
39823;BME280;25499;53.958;10.970;2024-03-22T15:47:13;100707.72;;;9.53;100.00
39823;BME280;25499;53.958;10.970;2024-03-22T15:49:40;100693.84;;;9.57;100.00
39823;BME280;25499;53.958;10.970;2024-03-22T15:52:06;100688.66;;;9.57;100.00
39823;BME280;25499;53.958;10.970;2024-03-22T15:54:33;100691.25;;;9.59;100.00
39823;BME280;25499;53.958;10.970;2024-03-22T15:56:58;100696.47;;;9.60;100.00
39823;BME280;25499;53.958;10.970;2024-03-22T15:59:27;100706.00;;;9.60;100.00
39823;BME280;25499;53.958;10.970;2024-03-22T16:01:52;100709.47;;;9.60;100.00
39823;BME280;25499;53.958;10.970;2024-03-22T16:04:19;100702.53;;;9.64;100.00
39823;BME280;25499;53.958;10.970;2024-03-22T16:06:46;100691.28;;;9.65;100.00
39823;BME280;25499;53.958;10.970;2024-03-22T16:09:13;100705.13;;;9.71;100.00
39823;BME280;25499;53.958;10.970;2024-03-22T16:11:39;100695.63;;;9.67;100.00
39823;BME280;25499;53.958;10.970;2024-03-22T16:14:06;100707.75;;;9.75;100.00
39823;BME280;25499;53.958;10.970;2024-03-22T16:16:33;100686.06;;;9.59;100.00
39823;BME280;25499;53.958;10.970;2024-03-22T16:18:59;100690.41;;;9.63;100.00
39823;BME280;25499;53.958;10.970;2024-03-22T16:21:25;100672.22;;;9.58;100.00
39823;BME280;25499;53.958;10.970;2024-03-22T16:23:52;100673.09;;;9.52;100.00
39823;BME280;25499;53.958;10.970;2024-03-22T16:26:17;100673.94;;;9.53;100.00
39823;BME280;25499;53.958;10.970;2024-03-22T16:28:44;100680.00;;;9.55;100.00
39823;BME280;25499;53.958;10.970;2024-03-22T16:31:10;100699.94;;;9.51;100.00
39823;BME280;25499;53.958;10.970;2024-03-22T16:34:09;100693.88;;;9.48;100.00
39823;BME280;25499;53.958;10.970;2024-03-22T16:36:35;100690.41;;;9.46;100.00
39823;BME280;25499;53.958;10.970;2024-03-22T16:39:02;100695.63;;;9.49;100.00
39823;BME280;25499;53.958;10.970;2024-03-22T16:41:28;100695.63;;;9.49;100.00
39823;BME280;25499;53.958;10.970;2024-03-22T16:43:55;100693.00;;;9.52;100.00
39823;BME280;25499;53.958;10.970;2024-03-22T16:46:21;100683.47;;;9.46;100.00
39823;BME280;25499;53.958;10.970;2024-03-22T16:48:48;100680.88;;;9.39;100.00
39823;BME280;25499;53.958;10.970;2024-03-22T16:51:16;100676.53;;;9.31;100.00
39823;BME280;25499;53.958;10.970;2024-03-22T16:53:42;100687.81;;;9.33;100.00
39823;BME280;25499;53.958;10.970;2024-03-22T16:56:09;100688.66;;;9.23;100.00
39823;BME280;25499;53.958;10.970;2024-03-22T16:58:36;100681.69;;;9.13;100.00
39823;BME280;25499;53.958;10.970;2024-03-22T17:01:03;100682.56;;;9.04;100.00
39823;BME280;25499;53.958;10.970;2024-03-22T17:03:29;100677.38;;;9.00;100.00
39823;BME280;25499;53.958;10.970;2024-03-22T17:05:56;100681.66;;;8.96;100.00
39823;BME280;25499;53.958;10.970;2024-03-22T17:08:24;100689.47;;;8.91;100.00
39823;BME280;25499;53.958;10.970;2024-03-22T17:10:53;100682.53;;;8.93;100.00
39823;BME280;25499;53.958;10.970;2024-03-22T17:13:21;100684.28;;;8.94;100.00
39823;BME280;25499;53.958;10.970;2024-03-22T17:15:48;100683.41;;;8.86;100.00
39823;BME280;25499;53.958;10.970;2024-03-22T17:18:14;100679.03;;;8.81;100.00
39823;BME280;25499;53.958;10.970;2024-03-22T17:20:40;100676.44;;;8.77;100.00
39823;BME280;25499;53.958;10.970;2024-03-22T17:23:07;100673.81;;;8.70;100.00
39823;BME280;25499;53.958;10.970;2024-03-22T17:25:35;100686.78;;;8.68;100.00
39823;BME280;25499;53.958;10.970;2024-03-22T17:28:02;100684.19;;;8.61;100.00
39823;BME280;25499;53.958;10.970;2024-03-22T17:30:29;100691.94;;;8.56;100.00
39823;BME280;25499;53.958;10.970;2024-03-22T17:32:54;100699.69;;;8.51;100.00
39823;BME280;25499;53.958;10.970;2024-03-22T17:35:22;100699.66;;;8.47;100.00
39823;BME280;25499;53.958;10.970;2024-03-22T17:37:48;100710.91;;;8.44;100.00
39823;BME280;25499;53.958;10.970;2024-03-22T17:40:18;100717.78;;;8.39;100.00
39823;BME280;25499;53.958;10.970;2024-03-22T17:42:45;100722.94;;;8.37;100.00
39823;BME280;25499;53.958;10.970;2024-03-22T17:45:12;100727.25;;;8.34;100.00
39823;BME280;25499;53.958;10.970;2024-03-22T17:47:37;100724.63;;;8.31;100.00
39823;BME280;25499;53.958;10.970;2024-03-22T17:50:07;100727.22;;;8.31;100.00
39823;BME280;25499;53.958;10.970;2024-03-22T17:52:32;100726.34;;;8.26;100.00
39823;BME280;25499;53.958;10.970;2024-03-22T17:54:59;100724.59;;;8.25;100.00
39823;BME280;25499;53.958;10.970;2024-03-22T17:57:26;100720.28;;;8.25;100.00
39823;BME280;25499;53.958;10.970;2024-03-22T17:59:56;100708.19;;;8.26;100.00
39823;BME280;25499;53.958;10.970;2024-03-22T18:02:23;100700.41;;;8.24;100.00
39823;BME280;25499;53.958;10.970;2024-03-22T18:04:48;100696.06;;;8.26;100.00
39823;BME280;25499;53.958;10.970;2024-03-22T18:07:15;100678.75;;;8.20;100.00
39823;BME280;25499;53.958;10.970;2024-03-22T18:09:41;100668.38;;;8.17;100.00
39823;BME280;25499;53.958;10.970;2024-03-22T18:12:08;100661.44;;;8.12;100.00
39823;BME280;25499;53.958;10.970;2024-03-22T18:14:34;100665.75;;;8.14;100.00
39823;BME280;25499;53.958;10.970;2024-03-22T18:17:02;100652.78;;;8.14;100.00
39823;BME280;25499;53.958;10.970;2024-03-22T18:19:29;100640.69;;;8.13;100.00
39823;BME280;25499;53.958;10.970;2024-03-22T18:21:56;100645.84;;;8.07;100.00
39823;BME280;25499;53.958;10.970;2024-03-22T18:24:22;100653.59;;;8.04;100.00
39823;BME280;25499;53.958;10.970;2024-03-22T18:26:49;100659.59;;;7.95;100.00
39823;BME280;25499;53.958;10.970;2024-03-22T18:29:15;100646.63;;;7.88;100.00
39823;BME280;25499;53.958;10.970;2024-03-22T18:31:42;100656.97;;;7.88;100.00
39823;BME280;25499;53.958;10.970;2024-03-22T18:34:09;100659.53;;;7.81;100.00
39823;BME280;25499;53.958;10.970;2024-03-22T18:36:35;100661.28;;;7.87;100.00
39823;BME280;25499;53.958;10.970;2024-03-22T18:39:01;100663.91;;;7.90;100.00
39823;BME280;25499;53.958;10.970;2024-03-22T18:41:28;100664.78;;;7.89;100.00
39823;BME280;25499;53.958;10.970;2024-03-22T18:43:54;100668.22;;;7.90;100.00
39823;BME280;25499;53.958;10.970;2024-03-22T18:46:22;100656.09;;;7.85;100.00
39823;BME280;25499;53.958;10.970;2024-03-22T18:48:47;100662.16;;;7.86;100.00
39823;BME280;25499;53.958;10.970;2024-03-22T18:51:16;100664.72;;;7.83;100.00
39823;BME280;25499;53.958;10.970;2024-03-22T18:53:42;100668.16;;;7.83;100.00
39823;BME280;25499;53.958;10.970;2024-03-22T18:56:08;100664.72;;;7.83;100.00
39823;BME280;25499;53.958;10.970;2024-03-22T18:58:36;100657.84;;;7.88;100.00
39823;BME280;25499;53.958;10.970;2024-03-22T19:01:03;100656.97;;;7.86;100.00
39823;BME280;25499;53.958;10.970;2024-03-22T19:03:29;100649.13;;;7.78;100.00
39823;BME280;25499;53.958;10.970;2024-03-22T19:05:55;100646.53;;;7.78;100.00
39823;BME280;25499;53.958;10.970;2024-03-22T19:08:23;100650.00;;;7.80;100.00
39823;BME280;25499;53.958;10.970;2024-03-22T19:10:49;100656.00;;;7.73;100.00
39823;BME280;25499;53.958;10.970;2024-03-22T19:13:16;100646.50;;;7.69;100.00
39823;BME280;25499;53.958;10.970;2024-03-22T19:15:52;100656.84;;;7.68;100.00
39823;BME280;25499;53.958;10.970;2024-03-22T19:18:18;100649.03;;;7.63;100.00
39823;BME280;25499;53.958;10.970;2024-03-22T19:20:45;100659.44;;;7.69;100.00
39823;BME280;25499;53.958;10.970;2024-03-22T19:23:10;100653.38;;;7.70;100.00
39823;BME280;25499;53.958;10.970;2024-03-22T19:25:39;100643.88;;;7.68;100.00
39823;BME280;25499;53.958;10.970;2024-03-22T19:28:04;100651.69;;;7.69;100.00
39823;BME280;25499;53.958;10.970;2024-03-22T19:30:34;100649.91;;;7.65;100.00
39823;BME280;25499;53.958;10.970;2024-03-22T19:33:00;100646.44;;;7.63;100.00
39823;BME280;25499;53.958;10.970;2024-03-22T19:35:27;100656.78;;;7.60;100.00
39823;BME280;25499;53.958;10.970;2024-03-22T19:37:53;100652.47;;;7.59;100.00
39823;BME280;25499;53.958;10.970;2024-03-22T19:40:20;100646.38;;;7.54;100.00
39823;BME280;25499;53.958;10.970;2024-03-22T19:42:47;100650.69;;;7.53;100.00
39823;BME280;25499;53.958;10.970;2024-03-22T19:45:14;100649.81;;;7.51;100.00
39823;BME280;25499;53.958;10.970;2024-03-22T19:47:39;100655.81;;;7.50;100.00
39823;BME280;25499;53.958;10.970;2024-03-22T19:50:07;100657.53;;;7.48;100.00
39823;BME280;25499;53.958;10.970;2024-03-22T19:52:33;100654.06;;;7.44;100.00
39823;BME280;25499;53.958;10.970;2024-03-22T19:55:00;100651.47;;;7.43;100.00
39823;BME280;25499;53.958;10.970;2024-03-22T19:57:25;100659.28;;;7.47;100.00
39823;BME280;25499;53.958;10.970;2024-03-22T19:59:53;100648.84;;;7.41;100.00
39823;BME280;25499;53.958;10.970;2024-03-22T20:02:19;100652.31;;;7.40;100.00
39823;BME280;25499;53.958;10.970;2024-03-22T20:04:46;100647.97;;;7.39;100.00
39823;BME280;25499;53.958;10.970;2024-03-22T20:07:11;100658.38;;;7.42;100.00
39823;BME280;25499;53.958;10.970;2024-03-22T20:09:38;100660.94;;;7.39;100.00
39823;BME280;25499;53.958;10.970;2024-03-22T20:12:05;100657.41;;;7.33;100.00
39823;BME280;25499;53.958;10.970;2024-03-22T20:14:32;100666.91;;;7.32;100.00
39823;BME280;25499;53.958;10.970;2024-03-22T20:17:00;100665.16;;;7.31;100.00
39823;BME280;25499;53.958;10.970;2024-03-22T20:19:26;100661.75;;;7.32;100.00